KOFP

Hanover County Municipal Airport

Richmond/Ashland, Virginia, USA
METAR KOFP 120854Z AUTO 00000KT 8SM CLR M06/M08 A3015 RMK AO2 SLP211 I1000 I3000 T10611083 53020
Observed Flight Rules
Dec-12 @ 08:54 UTC (60 minutes ago) Visual Flight Rules
Visibility Clouds
8 miles
  • Clear skies
Temperatures Readings
Current -6°C / 21°F
Dewpoint -8°C / 18°F
Humidity 86%
Altimeter 30.15" Hg
Pressure 1021.1 hPa
Elevation 62
METAR KOFP 120854Z AUTO 00000KT 8SM CLR M06/M08 A3015 RMK AO2 SLP211 I1000 I3000 T10611083 53020
Observed Flight Rules
Dec-12 @ 08:54 UTC
(60 minutes ago)
VFR
Clouds
  • Clear skies
Temperature Dewpoint
-6°C / 21°F -8°C / 18°F
Humidity Altimeter Pressure
86% 30.15" Hg 1021.1 hPa